createdAt,value
2022-12-03T00:00:32.445Z,16.80
2022-12-03T00:03:02.217Z,19.53
2022-12-03T00:05:31.873Z,14.83
2022-12-03T00:08:01.399Z,12.03
2022-12-03T00:10:30.914Z,19.67
2022-12-03T00:13:00.372Z,17.30
2022-12-03T00:15:29.842Z,12.73
2022-12-03T00:17:59.444Z,14.27
2022-12-03T00:20:28.895Z,12.90
2022-12-03T00:22:58.422Z,13.40
2022-12-03T00:25:27.863Z,12.60
2022-12-03T00:27:57.368Z,12.00
2022-12-03T00:30:26.976Z,11.80
2022-12-03T00:32:56.427Z,14.57
2022-12-03T00:35:25.879Z,11.20
2022-12-03T00:37:55.974Z,12.93
2022-12-03T00:40:25.414Z,13.07
2022-12-03T00:42:55.451Z,18.83
2022-12-03T00:45:24.893Z,20.97
2022-12-03T00:47:54.348Z,26.00
2022-12-03T00:50:23.963Z,21.17
2022-12-03T00:52:53.455Z,16.03
2022-12-03T00:55:22.901Z,19.20
2022-12-03T00:57:52.355Z,16.13
2022-12-03T01:00:23.664Z,13.03
2022-12-03T01:02:56.089Z,17.07
2022-12-03T01:05:25.546Z,17.67
2022-12-03T01:07:55.105Z,21.47
2022-12-03T01:10:24.592Z,21.30
2022-12-03T01:12:54.045Z,22.43
2022-12-03T01:15:23.556Z,23.50
2022-12-03T01:17:54.339Z,27.43
2022-12-03T01:20:23.811Z,21.10
2022-12-03T01:22:53.260Z,15.80
2022-12-03T01:25:22.879Z,17.73
2022-12-03T01:27:52.333Z,21.97
2022-12-03T01:30:21.778Z,31.70
2022-12-03T01:32:51.229Z,25.00
2022-12-03T01:35:20.684Z,20.03
2022-12-03T01:37:50.137Z,16.10
2022-12-03T01:40:22.256Z,12.90
2022-12-03T01:42:51.718Z,15.37
2022-12-03T01:45:24.536Z,17.53
2022-12-03T01:47:54.011Z,18.67
2022-12-03T01:50:30.627Z,17.13
2022-12-03T01:53:04.568Z,17.50
2022-12-03T01:55:34.074Z,16.47
2022-12-03T01:58:05.057Z,14.43
2022-12-03T02:00:34.665Z,17.50
2022-12-03T02:03:10.602Z,17.57
2022-12-03T02:05:40.479Z,21.23
2022-12-03T02:08:37.486Z,16.97
2022-12-03T02:11:20.729Z,12.93
2022-12-03T02:13:55.121Z,13.73
2022-12-03T02:16:24.756Z,10.60
2022-12-03T02:18:54.354Z,13.33
2022-12-03T02:21:30.858Z,17.53
2022-12-03T02:24:16.744Z,15.43
2022-12-03T02:26:46.195Z,21.80
2022-12-03T02:29:15.634Z,17.93
2022-12-03T02:31:45.657Z,16.90
2022-12-03T02:34:37.021Z,16.13
2022-12-03T02:37:09.753Z,15.60
2022-12-03T02:39:43.891Z,14.47
2022-12-03T02:42:31.581Z,21.47
2022-12-03T02:45:10.318Z,20.63
2022-12-03T02:47:53.470Z,18.03
2022-12-03T02:50:27.517Z,14.07
2022-12-03T02:53:01.249Z,14.37
2022-12-03T02:55:37.118Z,12.07
2022-12-03T02:58:06.389Z,12.27
2022-12-03T03:00:38.840Z,14.07
2022-12-03T03:03:09.886Z,17.57
2022-12-03T03:05:42.064Z,13.30
2022-12-03T03:08:13.531Z,19.03
2022-12-03T03:10:45.566Z,13.07
2022-12-03T03:13:19.990Z,14.43
2022-12-03T03:15:49.773Z,12.83
2022-12-03T03:18:20.236Z,14.83
2022-12-03T03:20:49.853Z,19.00
2022-12-03T03:23:23.313Z,14.90
2022-12-03T03:26:12.185Z,13.47
2022-12-03T03:28:46.212Z,20.77
2022-12-03T03:31:20.418Z,16.17
2022-12-03T03:33:51.480Z,11.50
2022-12-03T03:36:23.172Z,14.67
2022-12-03T03:38:53.062Z,16.57
2022-12-03T03:41:23.615Z,14.77
2022-12-03T03:43:53.316Z,14.47
2022-12-03T03:46:23.579Z,15.23
2022-12-03T03:48:54.128Z,13.50
2022-12-03T03:51:24.213Z,15.57
2022-12-03T03:53:54.317Z,15.70
2022-12-03T03:56:24.358Z,13.07
2022-12-03T03:58:53.814Z,16.67
2022-12-03T04:01:25.484Z,17.43
2022-12-03T04:03:55.896Z,15.43
2022-12-03T04:06:25.403Z,19.00
2022-12-03T04:08:55.400Z,12.30
2022-12-03T04:11:42.849Z,18.53
2022-12-03T04:14:12.299Z,21.57
2022-12-03T04:16:41.884Z,19.00
2022-12-03T04:19:11.470Z,12.87
2022-12-03T04:21:59.057Z,11.07
2022-12-03T04:24:28.885Z,15.47
2022-12-03T04:27:16.408Z,19.23
2022-12-03T04:29:45.861Z,16.83
2022-12-03T04:32:33.644Z,18.70
2022-12-03T04:35:20.896Z,12.27
2022-12-03T04:37:50.694Z,12.70
2022-12-03T04:40:38.197Z,14.73
2022-12-03T04:43:07.635Z,11.03
2022-12-03T04:45:37.223Z,10.33
2022-12-03T04:48:07.083Z,16.33
2022-12-03T04:50:36.611Z,20.13
2022-12-03T04:53:06.249Z,21.03
2022-12-03T04:55:35.748Z,16.53
2022-12-03T04:58:05.631Z,15.03
2022-12-03T05:00:35.093Z,12.40
2022-12-03T05:03:04.666Z,14.60
2022-12-03T05:05:34.162Z,15.77
2022-12-03T05:08:03.706Z,15.73
2022-12-03T05:10:33.235Z,12.40
2022-12-03T05:13:02.857Z,12.57
2022-12-03T05:15:32.299Z,9.93
2022-12-03T05:18:01.743Z,8.10
2022-12-03T05:20:46.935Z,8.08
2022-12-03T05:23:15.729Z,7.17
2022-12-03T05:25:45.168Z,8.80
2022-12-03T05:28:14.693Z,7.50
2022-12-03T05:30:44.412Z,7.60
2022-12-03T05:33:13.965Z,10.27
2022-12-03T05:35:43.736Z,14.90
2022-12-03T05:38:13.188Z,16.90
2022-12-03T05:40:42.656Z,25.73
2022-12-03T05:43:12.148Z,19.67
2022-12-03T05:45:44.818Z,17.63
2022-12-03T05:48:17.511Z,20.57
2022-12-03T05:50:48.180Z,11.23
2022-12-03T05:53:19.320Z,18.10
2022-12-03T05:55:48.765Z,14.23
2022-12-03T05:58:18.219Z,15.43
2022-12-03T06:00:47.670Z,20.17
2022-12-03T06:03:17.288Z,19.90
2022-12-03T06:05:46.851Z,19.17
2022-12-03T06:08:16.380Z,17.13
2022-12-03T06:10:45.835Z,14.43
2022-12-03T06:13:15.275Z,11.17
2022-12-03T06:15:44.872Z,10.87
2022-12-03T06:18:14.535Z,13.63
2022-12-03T06:20:43.973Z,13.90
2022-12-03T06:23:13.436Z,15.83
2022-12-03T06:25:42.877Z,16.80
2022-12-03T06:28:12.348Z,19.13
2022-12-03T06:30:41.799Z,14.07
2022-12-03T06:33:11.240Z,12.43
2022-12-03T06:35:40.678Z,9.30
2022-12-03T06:38:10.145Z,11.17
2022-12-03T06:40:39.580Z,13.03
2022-12-03T06:43:09.333Z,10.73
2022-12-03T06:45:42.045Z,15.03
2022-12-03T06:48:09.956Z,14.00
2022-12-03T06:50:39.408Z,9.60
2022-12-03T06:53:08.854Z,10.70
2022-12-03T06:55:38.289Z,9.17
2022-12-03T06:58:07.788Z,9.00
2022-12-03T07:00:37.240Z,9.73
2022-12-03T07:03:06.810Z,9.97
2022-12-03T07:05:36.217Z,9.00
2022-12-03T07:08:05.784Z,8.03
2022-12-03T07:10:35.261Z,8.10
2022-12-03T07:13:04.724Z,8.73
2022-12-03T07:15:34.176Z,7.70
2022-12-03T07:18:03.639Z,9.33
2022-12-03T07:20:33.097Z,6.83
2022-12-03T07:23:02.560Z,14.43
2022-12-03T07:25:32.060Z,14.13
2022-12-03T07:28:01.527Z,11.40
2022-12-03T07:30:30.969Z,10.57
2022-12-03T07:33:00.432Z,9.27
2022-12-03T07:35:29.877Z,11.40
2022-12-03T07:37:59.361Z,11.10
2022-12-03T07:40:28.884Z,16.33
2022-12-03T07:42:58.334Z,17.17
2022-12-03T07:45:27.773Z,15.53
2022-12-03T07:47:57.238Z,13.13
2022-12-03T07:50:28.281Z,11.23
2022-12-03T07:52:58.227Z,13.10
2022-12-03T07:55:27.668Z,12.73
2022-12-03T07:57:57.155Z,9.83
2022-12-03T08:00:27.564Z,9.87
2022-12-03T08:02:57.073Z,14.03
2022-12-03T08:05:26.895Z,11.53
2022-12-03T08:07:56.877Z,11.10
2022-12-03T08:10:27.350Z,7.30
2022-12-03T08:13:00.124Z,9.17
2022-12-03T08:15:38.540Z,9.83
2022-12-03T08:18:06.240Z,17.83
2022-12-03T08:20:39.870Z,14.83
2022-12-03T08:23:19.359Z,15.13
2022-12-03T08:25:51.575Z,15.53
2022-12-03T08:28:27.024Z,13.13
2022-12-03T08:31:12.613Z,10.07
2022-12-03T08:33:42.930Z,18.53
2022-12-03T08:36:36.135Z,18.43
2022-12-03T08:39:21.912Z,16.13
2022-12-03T08:42:31.995Z,17.63
2022-12-03T08:45:24.198Z,15.17
2022-12-03T08:47:53.785Z,10.03
2022-12-03T08:50:36.547Z,9.27
2022-12-03T08:53:16.385Z,11.27
2022-12-03T08:55:55.339Z,10.17
2022-12-03T08:58:40.587Z,8.27
2022-12-03T09:01:20.514Z,11.03
2022-12-03T09:03:56.090Z,12.83
2022-12-03T09:06:25.549Z,11.03
2022-12-03T09:08:55.012Z,15.17
2022-12-03T09:11:24.469Z,22.23
2022-12-03T09:13:53.919Z,18.97
2022-12-03T09:16:23.418Z,15.57
2022-12-03T09:18:52.917Z,12.97
2022-12-03T09:21:22.376Z,10.40
2022-12-03T09:23:51.841Z,10.57
2022-12-03T09:26:21.346Z,10.43
2022-12-03T09:28:50.821Z,13.03
2022-12-03T09:31:20.416Z,14.67
2022-12-03T09:33:49.889Z,13.60
2022-12-03T09:36:19.324Z,9.67
2022-12-03T09:38:48.862Z,8.47
2022-12-03T09:41:18.309Z,16.77
2022-12-03T09:44:04.033Z,16.27
2022-12-03T09:46:21.146Z,17.87
2022-12-03T09:48:51.150Z,16.57
2022-12-03T09:51:21.039Z,16.77
2022-12-03T09:53:50.512Z,13.93
2022-12-03T09:56:24.298Z,8.97
2022-12-03T09:58:54.425Z,15.07
2022-12-03T10:01:29.175Z,14.80
2022-12-03T10:03:56.330Z,17.80
2022-12-03T10:06:26.142Z,12.40
2022-12-03T10:08:57.019Z,10.23
2022-12-03T10:11:28.246Z,13.63
2022-12-03T10:13:59.638Z,13.83
2022-12-03T10:16:31.030Z,14.27
2022-12-03T10:19:02.662Z,15.13
2022-12-03T10:21:39.294Z,12.87
2022-12-03T10:24:36.104Z,17.17
2022-12-03T10:27:27.638Z,14.77
2022-12-03T10:30:02.881Z,17.13
2022-12-03T10:32:45.755Z,15.40
2022-12-03T10:35:20.565Z,14.97
2022-12-03T10:38:09.113Z,19.00
2022-12-03T10:40:40.716Z,20.87
2022-12-03T10:43:23.548Z,20.30
2022-12-03T10:46:05.924Z,24.00
2022-12-03T10:48:35.485Z,15.37
2022-12-03T10:51:23.933Z,13.03
2022-12-03T10:53:54.342Z,14.20
2022-12-03T10:56:28.706Z,16.00
2022-12-03T10:58:58.789Z,15.23
2022-12-03T11:01:28.619Z,19.10
2022-12-03T11:04:05.136Z,22.87
2022-12-03T11:06:34.693Z,15.33
2022-12-03T11:09:09.127Z,15.10
2022-12-03T11:11:37.664Z,18.67
2022-12-03T11:14:07.399Z,21.83
2022-12-03T11:16:48.058Z,15.53
2022-12-03T11:19:43.394Z,14.27
2022-12-03T11:22:17.522Z,14.47
2022-12-03T11:24:47.045Z,13.17
2022-12-03T11:27:22.397Z,12.10
2022-12-03T11:29:55.819Z,9.77
2022-12-03T11:32:49.311Z,13.83
2022-12-03T11:35:29.475Z,15.20
2022-12-03T11:38:03.556Z,13.90
2022-12-03T11:40:37.728Z,13.50
2022-12-03T11:43:05.543Z,11.70
2022-12-03T11:45:39.357Z,12.30
2022-12-03T11:48:15.638Z,11.17
2022-12-03T11:50:54.548Z,10.73
2022-12-03T11:53:31.400Z,11.60
2022-12-03T11:56:13.056Z,17.80
2022-12-03T11:58:45.405Z,15.93
2022-12-03T12:01:16.777Z,13.43
2022-12-03T12:03:50.401Z,13.40
2022-12-03T12:06:23.900Z,13.73
2022-12-03T12:08:57.986Z,14.50
2022-12-03T12:11:33.567Z,22.17
2022-12-03T12:14:12.636Z,22.67
2022-12-03T12:16:52.236Z,18.30
2022-12-03T12:19:46.475Z,17.83
2022-12-03T12:22:28.971Z,20.07
2022-12-03T12:25:09.537Z,11.27
2022-12-03T12:27:45.926Z,14.33
2022-12-03T12:30:18.377Z,17.20
2022-12-03T12:32:51.337Z,15.47
2022-12-03T12:35:32.901Z,16.87
2022-12-03T12:38:12.511Z,25.63
2022-12-03T12:40:45.686Z,17.93
2022-12-03T12:43:29.593Z,16.60
2022-12-03T12:46:24.982Z,22.03
2022-12-03T12:48:36.775Z,23.20
2022-12-03T12:51:17.852Z,16.77
2022-12-03T12:53:48.839Z,11.43
2022-12-03T12:56:31.040Z,8.97
2022-12-03T12:59:16.245Z,7.40
2022-12-03T13:01:48.263Z,7.90
2022-12-03T13:04:23.958Z,7.13
2022-12-03T13:06:55.671Z,7.80
2022-12-03T13:09:27.832Z,7.40
2022-12-03T13:12:07.464Z,6.63
2022-12-03T13:14:38.866Z,9.80
2022-12-03T13:17:24.494Z,15.23
2022-12-03T13:20:06.661Z,12.73
2022-12-03T13:22:27.180Z,10.23
2022-12-03T13:24:58.770Z,13.50
2022-12-03T13:27:30.788Z,20.53
2022-12-03T13:30:14.216Z,14.13
2022-12-03T13:32:44.686Z,10.93
2022-12-03T13:35:34.822Z,9.43
2022-12-03T13:38:13.389Z,8.70
2022-12-03T13:40:43.215Z,10.87
2022-12-03T13:43:17.155Z,11.10
2022-12-03T13:45:50.171Z,8.90
2022-12-03T13:48:36.246Z,8.23
2022-12-03T13:51:15.544Z,11.53
2022-12-03T13:53:44.994Z,8.50
2022-12-03T13:56:31.427Z,9.13
2022-12-03T13:59:04.292Z,10.43
2022-12-03T14:01:34.679Z,9.77
2022-12-03T14:04:04.831Z,8.47
2022-12-03T14:06:34.328Z,8.50
2022-12-03T14:09:03.841Z,10.43
2022-12-03T14:11:51.183Z,14.97
2022-12-03T14:14:20.651Z,17.10
2022-12-03T14:16:52.198Z,12.43
2022-12-03T14:19:21.293Z,17.20
2022-12-03T14:21:50.775Z,13.00
2022-12-03T14:24:20.278Z,12.13
2022-12-03T14:26:49.791Z,8.87
2022-12-03T14:29:19.375Z,13.50
2022-12-03T14:31:48.954Z,14.00
2022-12-03T14:34:18.511Z,20.27
2022-12-03T14:36:48.011Z,14.87
2022-12-03T14:39:17.471Z,12.53
2022-12-03T14:42:16.538Z,9.50
2022-12-03T14:44:52.332Z,8.20
2022-12-03T14:47:23.605Z,8.97
2022-12-03T14:49:53.699Z,15.60
2022-12-03T14:52:23.518Z,10.90
2022-12-03T14:54:52.968Z,8.17
2022-12-03T14:57:22.436Z,10.87
2022-12-03T14:59:52.369Z,12.67
2022-12-03T15:02:22.360Z,9.87
2022-12-03T15:04:51.885Z,9.90
2022-12-03T15:07:21.366Z,10.13
2022-12-03T15:09:50.833Z,11.37
2022-12-03T15:12:20.273Z,10.57
2022-12-03T15:14:49.807Z,13.90
2022-12-03T15:17:27.815Z,9.87
2022-12-03T15:19:50.499Z,9.57
2022-12-03T15:22:19.949Z,10.23
2022-12-03T15:24:49.412Z,14.70
2022-12-03T15:27:18.845Z,13.50
2022-12-03T15:29:48.299Z,11.00
2022-12-03T15:32:17.755Z,7.73
2022-12-03T15:34:47.214Z,13.93
2022-12-03T15:37:16.813Z,12.97
2022-12-03T15:39:48.681Z,14.60
2022-12-03T15:42:17.457Z,11.23
2022-12-03T15:44:46.988Z,10.73
2022-12-03T15:47:16.434Z,11.67
2022-12-03T15:49:45.880Z,11.40
2022-12-03T15:52:15.322Z,16.90
2022-12-03T15:54:45.952Z,10.63
2022-12-03T15:57:15.409Z,10.50
2022-12-03T15:59:44.862Z,9.00
2022-12-03T16:02:14.598Z,20.90
2022-12-03T16:04:44.134Z,14.70
2022-12-03T16:07:13.663Z,16.37
2022-12-03T16:09:43.095Z,16.10
2022-12-03T16:12:12.578Z,10.50
2022-12-03T16:14:42.163Z,10.87
2022-12-03T16:17:11.664Z,15.30
2022-12-03T16:19:41.112Z,19.03
2022-12-03T16:22:10.906Z,14.63
2022-12-03T16:24:40.606Z,12.47
2022-12-03T16:27:10.217Z,11.93
2022-12-03T16:29:40.051Z,16.50
2022-12-03T16:32:09.503Z,14.07
2022-12-03T16:34:38.956Z,14.33
2022-12-03T16:37:09.568Z,13.67
2022-12-03T16:39:39.196Z,13.97
2022-12-03T16:42:14.238Z,14.75
2022-12-03T16:44:56.518Z,13.60
2022-12-03T16:47:30.621Z,19.87
2022-12-03T16:49:57.860Z,16.80
2022-12-03T16:52:27.310Z,13.90
2022-12-03T16:54:56.784Z,12.60
2022-12-03T16:57:31.721Z,17.10
2022-12-03T16:59:57.664Z,19.80
2022-12-03T17:02:27.793Z,17.50
2022-12-03T17:04:57.801Z,19.53
2022-12-03T17:07:27.246Z,13.43
2022-12-03T17:09:57.330Z,10.43
2022-12-03T17:12:37.530Z,10.10
2022-12-03T17:14:58.105Z,20.20
2022-12-03T17:17:27.546Z,16.67
2022-12-03T17:19:57.176Z,13.90
2022-12-03T17:22:26.620Z,12.03
2022-12-03T17:24:56.291Z,10.60
2022-12-03T17:27:25.674Z,13.40
2022-12-03T17:29:55.337Z,12.33
2022-12-03T17:32:24.933Z,9.30
2022-12-03T17:34:54.426Z,11.73
2022-12-03T17:37:23.863Z,10.87
2022-12-03T17:39:53.742Z,10.57
2022-12-03T17:42:23.439Z,9.83
2022-12-03T17:44:52.958Z,8.90
2022-12-03T17:47:22.392Z,11.20
2022-12-03T17:49:52.408Z,6.03
2022-12-03T17:52:22.025Z,17.10
2022-12-03T17:57:22.629Z,14.07
2022-12-03T17:59:52.589Z,10.57
2022-12-03T18:02:22.297Z,10.60
2022-12-03T18:04:51.816Z,10.50
2022-12-03T18:07:21.250Z,6.83
2022-12-03T18:09:51.207Z,10.97
2022-12-03T18:12:20.878Z,10.97
2022-12-03T18:14:50.335Z,10.43
2022-12-03T18:17:19.846Z,7.27
2022-12-03T18:19:49.297Z,6.70
2022-12-03T18:22:19.614Z,10.28
2022-12-03T18:24:51.858Z,7.30
2022-12-03T18:27:22.852Z,10.67
2022-12-03T18:29:53.112Z,8.17
2022-12-03T18:32:30.331Z,9.77
2022-12-03T18:34:54.095Z,8.47
2022-12-03T18:37:27.894Z,11.00
2022-12-03T18:39:58.631Z,11.00
2022-12-03T18:42:28.539Z,14.70
2022-12-03T18:45:00.228Z,10.87
2022-12-03T18:47:31.197Z,13.47
2022-12-03T18:50:00.822Z,11.50
2022-12-03T18:52:30.271Z,9.97
2022-12-03T18:54:59.728Z,14.37
2022-12-03T18:57:29.164Z,13.30
2022-12-03T18:59:58.873Z,15.53
2022-12-03T19:04:59.654Z,10.50
2022-12-03T19:07:29.180Z,15.67
2022-12-03T19:09:58.855Z,14.90
2022-12-03T19:12:28.305Z,13.57
2022-12-03T19:14:57.792Z,21.13
2022-12-03T19:17:27.600Z,17.43
2022-12-03T19:19:57.576Z,17.27
2022-12-03T19:22:27.270Z,24.23
2022-12-03T19:24:56.741Z,19.63
2022-12-03T19:27:26.197Z,13.73
2022-12-03T19:32:14.556Z,11.07
2022-12-03T19:34:44.007Z,12.00
2022-12-03T19:37:13.444Z,10.03
2022-12-03T19:39:43.268Z,11.23
2022-12-03T19:42:12.695Z,8.60
2022-12-03T19:44:42.253Z,13.00
2022-12-03T19:47:11.700Z,13.63
2022-12-03T19:49:41.152Z,13.03
2022-12-03T19:52:10.670Z,13.73
2022-12-03T19:54:40.124Z,11.67
2022-12-03T19:57:09.630Z,11.30
2022-12-03T19:59:39.404Z,11.93
2022-12-03T20:02:09.968Z,11.37
2022-12-03T20:04:39.708Z,8.73
2022-12-03T20:07:09.143Z,10.13
2022-12-03T20:09:38.600Z,18.40
2022-12-03T20:12:08.188Z,17.57
2022-12-03T20:14:37.647Z,14.40
2022-12-03T20:17:07.186Z,10.17
2022-12-03T20:19:36.719Z,12.17
2022-12-03T20:22:06.142Z,10.33
2022-12-03T20:24:35.602Z,10.20
2022-12-03T20:27:05.124Z,8.50
2022-12-03T20:29:34.926Z,9.47
2022-12-03T20:32:06.114Z,13.00
2022-12-03T20:34:36.282Z,9.37
2022-12-03T20:37:06.395Z,13.23
2022-12-03T20:39:35.854Z,16.70
2022-12-03T20:42:05.449Z,11.57
2022-12-03T20:44:36.882Z,10.73
2022-12-03T20:47:06.896Z,13.07
2022-12-03T20:49:38.360Z,11.73
2022-12-03T20:52:07.790Z,15.97
2022-12-03T20:54:39.923Z,13.17
2022-12-03T20:57:09.385Z,11.47
2022-12-03T20:59:38.829Z,11.77
2022-12-03T21:02:08.405Z,12.20
2022-12-03T21:04:38.015Z,11.07
2022-12-03T21:07:07.463Z,15.30
2022-12-03T21:09:36.945Z,12.83
2022-12-03T21:12:06.699Z,14.70
2022-12-03T21:14:36.152Z,13.17
2022-12-03T21:17:08.864Z,10.87
2022-12-03T21:19:36.837Z,14.47
2022-12-03T21:22:06.405Z,13.60
2022-12-03T21:24:37.387Z,13.77
2022-12-03T21:27:06.908Z,17.50
2022-12-03T21:29:36.435Z,13.87
2022-12-03T21:32:06.010Z,9.63
2022-12-03T21:34:37.259Z,11.03
2022-12-03T21:37:06.720Z,19.63
2022-12-03T21:39:36.243Z,13.73
2022-12-03T21:42:19.324Z,11.53
2022-12-03T21:44:37.200Z,12.53
2022-12-03T21:47:12.464Z,18.97
2022-12-03T21:49:38.486Z,15.57
2022-12-03T21:52:08.581Z,18.90
2022-12-03T21:54:38.373Z,12.10
2022-12-03T21:57:07.841Z,12.83
2022-12-03T21:59:37.266Z,17.90
2022-12-03T22:02:07.023Z,16.87
2022-12-03T22:04:39.530Z,14.47
2022-12-03T22:07:09.031Z,10.13
2022-12-03T22:09:38.667Z,17.27
2022-12-03T22:12:08.539Z,14.60
2022-12-03T22:14:38.062Z,10.17
2022-12-03T22:17:07.496Z,13.13
2022-12-03T22:19:37.097Z,20.23
2022-12-03T22:22:06.611Z,12.30
2022-12-03T22:24:36.077Z,11.77
2022-12-03T22:27:05.521Z,16.00
2022-12-03T22:29:35.460Z,11.60
2022-12-03T22:32:05.480Z,12.97
2022-12-03T22:34:35.080Z,12.43
2022-12-03T22:37:05.090Z,13.07
2022-12-03T22:39:35.707Z,10.40
2022-12-03T22:42:05.329Z,8.17
2022-12-03T22:44:34.784Z,20.37
2022-12-03T22:47:04.326Z,17.90
2022-12-03T22:49:33.785Z,17.67
2022-12-03T22:52:03.351Z,18.00
2022-12-03T22:54:33.276Z,10.43
2022-12-03T22:57:02.959Z,8.50
2022-12-03T22:59:32.405Z,8.10
2022-12-03T23:02:01.915Z,11.47
2022-12-03T23:04:31.416Z,9.67
2022-12-03T23:07:00.866Z,9.57
2022-12-03T23:09:30.376Z,10.77
2022-12-03T23:11:59.904Z,15.40
2022-12-03T23:14:29.373Z,20.33
2022-12-03T23:16:58.813Z,13.30
2022-12-03T23:19:28.267Z,13.97
2022-12-03T23:21:58.584Z,13.73
2022-12-03T23:24:28.595Z,14.53
2022-12-03T23:26:59.029Z,12.13
2022-12-03T23:29:28.486Z,18.67
2022-12-03T23:31:59.033Z,13.33
2022-12-03T23:34:28.520Z,9.93
2022-12-03T23:36:58.005Z,8.57
2022-12-03T23:39:27.450Z,8.13
2022-12-03T23:41:56.946Z,6.60
2022-12-03T23:44:27.986Z,14.27
2022-12-03T23:46:57.520Z,12.70
2022-12-03T23:49:27.065Z,11.80
2022-12-03T23:51:56.508Z,13.13
2022-12-03T23:54:26.328Z,10.03
2022-12-03T23:56:55.767Z,15.03
2022-12-03T23:59:25.233Z,11.73
